DAL6769 EGKK-LFPG
Flight info
| Callsign | DAL6769 |
|---|---|
| Flight time | 0h 48m |
| Altitude | 23000 |
| Route | SFD4Z SFD M605 HARDY/N0419F250 UM605 BIBAX BIBAX9W |
| Aircraft | L101/H-SDFGHIRWXY/S |
Departure
| Time | 2026-04-30 18:48 |
|---|---|
| Airport | London Gatwick Airport (EGKK) |
Arrival
| Time | 2026-04-30 19:36 |
|---|---|
| Airport | Charles de Gaulle International Airport (LFPG) |
| Time | Latitude | Longitude | Altitude | Speed | Heading |
|---|---|---|---|---|---|
| 2026-04-30 18:09 | 51.15615 | -0.16676 | 207 ft | 0 kts | 167° |
| 2026-04-30 18:28 | 51.15626 | -0.16680 | 208 ft | 3 kts | 167° |
| 2026-04-30 18:28 | 51.15643 | -0.16686 | 208 ft | 2 kts | 167° |
| 2026-04-30 18:28 | 51.15677 | -0.16687 | 208 ft | 3 kts | 226° |
| 2026-04-30 18:29 | 51.15684 | -0.16672 | 209 ft | 0 kts | 258° |
| 2026-04-30 18:33 | 51.15683 | -0.16683 | 209 ft | 4 kts | 259° |
| 2026-04-30 18:33 | 51.15676 | -0.16749 | 208 ft | 9 kts | 262° |
| 2026-04-30 18:34 | 51.15667 | -0.16871 | 215 ft | 13 kts | 261° |
| 2026-04-30 18:34 | 51.15623 | -0.17172 | 211 ft | 20 kts | 256° |
| 2026-04-30 18:34 | 51.15569 | -0.17301 | 216 ft | 11 kts | 192° |
| 2026-04-30 18:35 | 51.15445 | -0.17276 | 211 ft | 16 kts | 167° |
| 2026-04-30 18:35 | 51.15373 | -0.17250 | 214 ft | 16 kts | 167° |
| 2026-04-30 18:35 | 51.15310 | -0.17285 | 221 ft | 5 kts | 256° |
| 2026-04-30 18:36 | 51.15296 | -0.17480 | 214 ft | 13 kts | 261° |
| 2026-04-30 18:36 | 51.15275 | -0.17641 | 216 ft | 13 kts | 257° |
| 2026-04-30 18:36 | 51.15254 | -0.17787 | 215 ft | 11 kts | 256° |
| 2026-04-30 18:37 | 51.15232 | -0.17932 | 219 ft | 16 kts | 257° |
| 2026-04-30 18:37 | 51.15202 | -0.18135 | 217 ft | 21 kts | 257° |
| 2026-04-30 18:37 | 51.15174 | -0.18388 | 215 ft | 25 kts | 259° |
| 2026-04-30 18:37 | 51.15157 | -0.18528 | 216 ft | 9 kts | 259° |
| 2026-04-30 18:38 | 51.15141 | -0.18652 | 213 ft | 14 kts | 258° |
| 2026-04-30 18:38 | 51.15116 | -0.18834 | 218 ft | 19 kts | 257° |
| 2026-04-30 18:38 | 51.15092 | -0.19012 | 219 ft | 17 kts | 258° |
| 2026-04-30 18:38 | 51.15073 | -0.19153 | 218 ft | 1 kts | 258° |
| 2026-04-30 18:39 | 51.15067 | -0.19193 | 216 ft | 6 kts | 258° |
| 2026-04-30 18:39 | 51.15036 | -0.19260 | 216 ft | 9 kts | 197° |
| 2026-04-30 18:39 | 51.14972 | -0.19288 | 222 ft | 10 kts | 227° |
| 2026-04-30 18:39 | 51.14943 | -0.19411 | 219 ft | 14 kts | 258° |
| 2026-04-30 18:40 | 51.14919 | -0.19597 | 211 ft | 20 kts | 258° |
| 2026-04-30 18:40 | 51.14888 | -0.19830 | 216 ft | 24 kts | 256° |
| 2026-04-30 18:40 | 51.14845 | -0.20110 | 210 ft | 26 kts | 259° |
| 2026-04-30 18:40 | 51.14804 | -0.20415 | 216 ft | 30 kts | 258° |
| 2026-04-30 18:41 | 51.14760 | -0.20734 | 212 ft | 20 kts | 257° |
| 2026-04-30 18:41 | 51.14726 | -0.20967 | 217 ft | 18 kts | 257° |
| 2026-04-30 18:41 | 51.14698 | -0.21164 | 209 ft | 8 kts | 257° |
| 2026-04-30 18:41 | 51.14695 | -0.21187 | 217 ft | 0 kts | 257° |
| 2026-04-30 18:42 | 51.14695 | -0.21190 | 216 ft | 2 kts | 257° |
| 2026-04-30 18:42 | 51.14658 | -0.21313 | 215 ft | 10 kts | 209° |
| 2026-04-30 18:42 | 51.14632 | -0.21322 | 216 ft | 0 kts | 180° |
| 2026-04-30 18:45 | 51.14614 | -0.21321 | 216 ft | 4 kts | 177° |
| 2026-04-30 18:45 | 51.14581 | -0.21310 | 213 ft | 6 kts | 164° |
| 2026-04-30 18:46 | 51.14562 | -0.21295 | 222 ft | 0 kts | 147° |
| 2026-04-30 18:46 | 51.14551 | -0.21280 | 220 ft | 4 kts | 137° |
| 2026-04-30 18:46 | 51.14529 | -0.21227 | 220 ft | 8 kts | 114° |
| 2026-04-30 18:46 | 51.14521 | -0.21139 | 214 ft | 8 kts | 86° |
| 2026-04-30 18:47 | 51.14524 | -0.21106 | 215 ft | 0 kts | 78° |
| 2026-04-30 18:47 | 51.14571 | -0.20761 | 217 ft | 86 kts | 77° |
| 2026-04-30 18:47 | 51.14774 | -0.19321 | 261 ft | 175 kts | 77° |
| 2026-04-30 18:47 | 51.15049 | -0.17420 | 679 ft | 224 kts | 77° |
| 2026-04-30 18:48 | 51.15506 | -0.14251 | 1380 ft | 301 kts | 79° |
| 2026-04-30 18:48 | 51.15993 | -0.10719 | 1922 ft | 328 kts | 80° |
| 2026-04-30 18:48 | 51.16457 | -0.07411 | 2393 ft | 272 kts | 81° |
| 2026-04-30 18:48 | 51.16858 | -0.04683 | 2843 ft | 244 kts | 81° |
| 2026-04-30 18:49 | 51.17249 | -0.02039 | 3347 ft | 246 kts | 81° |
| 2026-04-30 18:49 | 51.17514 | -0.00243 | 3662 ft | 249 kts | 82° |
| 2026-04-30 18:49 | 51.17910 | 0.02462 | 4156 ft | 252 kts | 81° |
| 2026-04-30 18:49 | 51.18317 | 0.05282 | 4641 ft | 259 kts | 81° |
| 2026-04-30 18:50 | 51.18511 | 0.08194 | 4881 ft | 260 kts | 100° |
| 2026-04-30 18:50 | 51.18157 | 0.10255 | 4910 ft | 256 kts | 119° |
| 2026-04-30 18:50 | 51.16624 | 0.12919 | 4917 ft | 251 kts | 152° |
| 2026-04-30 18:50 | 51.14999 | 0.13936 | 4958 ft | 251 kts | 165° |
| 2026-04-30 18:51 | 51.12942 | 0.14653 | 4967 ft | 252 kts | 169° |
| 2026-04-30 18:51 | 51.11469 | 0.15050 | 4968 ft | 252 kts | 171° |
| 2026-04-30 18:51 | 51.09901 | 0.15438 | 4972 ft | 252 kts | 171° |
| 2026-04-30 18:51 | 51.07881 | 0.15923 | 4976 ft | 252 kts | 172° |
| 2026-04-30 18:52 | 51.06202 | 0.16331 | 4981 ft | 252 kts | 171° |
| 2026-04-30 18:52 | 51.04482 | 0.16745 | 5317 ft | 250 kts | 171° |
| 2026-04-30 18:52 | 51.03334 | 0.17018 | 5693 ft | 252 kts | 171° |
| 2026-04-30 18:52 | 51.00865 | 0.17603 | 6588 ft | 258 kts | 172° |
| 2026-04-30 18:53 | 50.99173 | 0.18007 | 7147 ft | 261 kts | 171° |
| 2026-04-30 18:53 | 50.97376 | 0.18423 | 7754 ft | 264 kts | 171° |
| 2026-04-30 18:53 | 50.95505 | 0.18847 | 8399 ft | 266 kts | 171° |
| 2026-04-30 18:53 | 50.93676 | 0.19249 | 9035 ft | 269 kts | 171° |
| 2026-04-30 18:54 | 50.91807 | 0.19646 | 9685 ft | 271 kts | 171° |
| 2026-04-30 18:54 | 50.89943 | 0.20034 | 10302 ft | 274 kts | 171° |
| 2026-04-30 18:54 | 50.88009 | 0.20424 | 10906 ft | 276 kts | 171° |
| 2026-04-30 18:54 | 50.86759 | 0.20675 | 11306 ft | 278 kts | 171° |
| 2026-04-30 18:55 | 50.84116 | 0.21208 | 12177 ft | 280 kts | 171° |
| 2026-04-30 18:55 | 50.80244 | 0.21976 | 13435 ft | 284 kts | 171° |
| 2026-04-30 18:55 | 50.78289 | 0.22355 | 14076 ft | 287 kts | 171° |
| 2026-04-30 18:56 | 50.74244 | 0.23134 | 15297 ft | 292 kts | 171° |
| 2026-04-30 18:56 | 50.72243 | 0.23521 | 15901 ft | 294 kts | 171° |
| 2026-04-30 18:56 | 50.70872 | 0.23787 | 16323 ft | 297 kts | 171° |
| 2026-04-30 18:57 | 50.66687 | 0.24610 | 17122 ft | 306 kts | 171° |
| 2026-04-30 18:57 | 50.64585 | 0.25047 | 17139 ft | 303 kts | 167° |
| 2026-04-30 18:57 | 50.62604 | 0.26198 | 17137 ft | 301 kts | 148° |
| 2026-04-30 18:58 | 50.59564 | 0.30688 | 17148 ft | 302 kts | 137° |
| 2026-04-30 18:58 | 50.57890 | 0.32978 | 17153 ft | 302 kts | 141° |
| 2026-04-30 18:58 | 50.56246 | 0.35046 | 17149 ft | 302 kts | 142° |
| 2026-04-30 18:59 | 50.52999 | 0.38966 | 17164 ft | 302 kts | 143° |
| 2026-04-30 19:00 | 50.47893 | 0.45026 | 17153 ft | 302 kts | 143° |
| 2026-04-30 19:00 | 50.46203 | 0.47028 | 17138 ft | 302 kts | 143° |
| 2026-04-30 19:00 | 50.42822 | 0.51027 | 17145 ft | 304 kts | 143° |
| 2026-04-30 19:01 | 50.39551 | 0.55285 | 17148 ft | 304 kts | 139° |
| 2026-04-30 19:01 | 50.38078 | 0.57334 | 17149 ft | 304 kts | 138° |
| 2026-04-30 19:02 | 50.34837 | 0.61911 | 17148 ft | 304 kts | 138° |
| 2026-04-30 19:02 | 50.31686 | 0.66381 | 17147 ft | 303 kts | 138° |
| 2026-04-30 19:03 | 50.28555 | 0.70819 | 17144 ft | 303 kts | 138° |
| 2026-04-30 19:03 | 50.25424 | 0.75251 | 17149 ft | 304 kts | 138° |
| 2026-04-30 19:04 | 50.22298 | 0.79669 | 17148 ft | 303 kts | 138° |
| 2026-04-30 19:04 | 50.19162 | 0.84097 | 17146 ft | 304 kts | 138° |
| 2026-04-30 19:05 | 50.16010 | 0.88526 | 17152 ft | 303 kts | 138° |
| 2026-04-30 19:05 | 50.12884 | 0.92903 | 17150 ft | 303 kts | 138° |
| 2026-04-30 19:06 | 50.09723 | 0.97320 | 17140 ft | 305 kts | 138° |
| 2026-04-30 19:06 | 50.08125 | 0.99549 | 17139 ft | 305 kts | 138° |
| 2026-04-30 19:06 | 50.04965 | 1.03954 | 17147 ft | 305 kts | 138° |
| 2026-04-30 19:07 | 50.01873 | 1.08445 | 17143 ft | 305 kts | 135° |
| 2026-04-30 19:07 | 50.00397 | 1.10810 | 17147 ft | 305 kts | 134° |
| 2026-04-30 19:08 | 49.97470 | 1.15646 | 17150 ft | 305 kts | 133° |
| 2026-04-30 19:08 | 49.94610 | 1.20585 | 17149 ft | 304 kts | 131° |
| 2026-04-30 19:08 | 49.93250 | 1.23057 | 17157 ft | 304 kts | 130° |
| 2026-04-30 19:09 | 49.90540 | 1.28048 | 17155 ft | 304 kts | 130° |
| 2026-04-30 19:09 | 49.89158 | 1.30602 | 17152 ft | 304 kts | 130° |
| 2026-04-30 19:09 | 49.87796 | 1.33119 | 17152 ft | 304 kts | 130° |
| 2026-04-30 19:10 | 49.85072 | 1.38135 | 17136 ft | 305 kts | 130° |
| 2026-04-30 19:10 | 49.82309 | 1.43201 | 17145 ft | 306 kts | 130° |
| 2026-04-30 19:11 | 49.80929 | 1.45727 | 17154 ft | 306 kts | 130° |
| 2026-04-30 19:11 | 49.78184 | 1.50742 | 17163 ft | 306 kts | 130° |
| 2026-04-30 19:11 | 49.76784 | 1.53296 | 17159 ft | 306 kts | 130° |
| 2026-04-30 19:12 | 49.75408 | 1.55804 | 17158 ft | 306 kts | 130° |
| 2026-04-30 19:12 | 49.74450 | 1.57547 | 17152 ft | 306 kts | 130° |
| 2026-04-30 19:12 | 49.73032 | 1.60130 | 17160 ft | 306 kts | 130° |
| 2026-04-30 19:13 | 49.70281 | 1.65118 | 17164 ft | 306 kts | 130° |
| 2026-04-30 19:13 | 49.67511 | 1.70123 | 17160 ft | 306 kts | 130° |
| 2026-04-30 19:13 | 49.66141 | 1.72597 | 17164 ft | 306 kts | 130° |
| 2026-04-30 19:14 | 49.64814 | 1.74989 | 17180 ft | 306 kts | 130° |
| 2026-04-30 19:14 | 49.63365 | 1.77602 | 17171 ft | 306 kts | 130° |
| 2026-04-30 19:14 | 49.61959 | 1.80135 | 17159 ft | 306 kts | 130° |
| 2026-04-30 19:14 | 49.60573 | 1.82626 | 17161 ft | 306 kts | 130° |
| 2026-04-30 19:15 | 49.59148 | 1.85184 | 17167 ft | 306 kts | 130° |
| 2026-04-30 19:15 | 49.56408 | 1.90088 | 17167 ft | 306 kts | 130° |
| 2026-04-30 19:15 | 49.55015 | 1.92576 | 17182 ft | 306 kts | 130° |
| 2026-04-30 19:16 | 49.53623 | 1.95063 | 17186 ft | 306 kts | 130° |
| 2026-04-30 19:16 | 49.52211 | 1.97585 | 17192 ft | 306 kts | 130° |
| 2026-04-30 19:16 | 49.49414 | 2.02566 | 16867 ft | 308 kts | 130° |
| 2026-04-30 19:17 | 49.48031 | 2.05018 | 16497 ft | 305 kts | 130° |
| 2026-04-30 19:17 | 49.45222 | 2.09982 | 15739 ft | 302 kts | 130° |
| 2026-04-30 19:17 | 49.43876 | 2.12439 | 15382 ft | 301 kts | 127° |
| 2026-04-30 19:18 | 49.41862 | 2.16915 | 14781 ft | 299 kts | 123° |
| 2026-04-30 19:18 | 49.40409 | 2.20443 | 14312 ft | 297 kts | 122° |
| 2026-04-30 19:18 | 49.39319 | 2.23140 | 13951 ft | 296 kts | 121° |
| 2026-04-30 19:19 | 49.38241 | 2.25808 | 13553 ft | 295 kts | 122° |
| 2026-04-30 19:19 | 49.37154 | 2.28492 | 13160 ft | 293 kts | 122° |
| 2026-04-30 19:19 | 49.34984 | 2.33846 | 12361 ft | 291 kts | 122° |
| 2026-04-30 19:20 | 49.33906 | 2.36381 | 11993 ft | 290 kts | 129° |
| 2026-04-30 19:20 | 49.32351 | 2.38381 | 11584 ft | 288 kts | 150° |
| 2026-04-30 19:20 | 49.28478 | 2.39348 | 10820 ft | 290 kts | 192° |
| 2026-04-30 19:21 | 49.26642 | 2.38099 | 10458 ft | 293 kts | 213° |
| 2026-04-30 19:21 | 49.24481 | 2.32938 | 9632 ft | 296 kts | 257° |
| 2026-04-30 19:22 | 49.24113 | 2.26653 | 8863 ft | 293 kts | 267° |
| 2026-04-30 19:22 | 49.24139 | 2.17429 | 7760 ft | 280 kts | 269° |
| 2026-04-30 19:23 | 49.22395 | 2.10676 | 6558 ft | 215 kts | 204° |
| 2026-04-30 19:24 | 49.19796 | 2.09085 | 5742 ft | 196 kts | 218° |
| 2026-04-30 19:24 | 49.18839 | 2.07693 | 5426 ft | 188 kts | 224° |
| 2026-04-30 19:24 | 49.17068 | 2.04729 | 5179 ft | 186 kts | 225° |
| 2026-04-30 19:25 | 49.13644 | 2.03467 | 5127 ft | 185 kts | 164° |
| 2026-04-30 19:26 | 49.11228 | 2.04767 | 5150 ft | 185 kts | 161° |
| 2026-04-30 19:26 | 49.09068 | 2.04998 | 5138 ft | 183 kts | 190° |
| 2026-04-30 19:26 | 49.07885 | 2.04587 | 5148 ft | 182 kts | 194° |
| 2026-04-30 19:27 | 49.05404 | 2.03744 | 5109 ft | 185 kts | 179° |
| 2026-04-30 19:27 | 49.03333 | 2.05918 | 5128 ft | 188 kts | 134° |
| 2026-04-30 19:28 | 49.02536 | 2.07383 | 5122 ft | 169 kts | 132° |
| 2026-04-30 19:28 | 49.00659 | 2.08752 | 5104 ft | 153 kts | 186° |
| 2026-04-30 19:29 | 48.98756 | 2.09826 | 5146 ft | 160 kts | 137° |
| 2026-04-30 19:29 | 48.98040 | 2.11114 | 5154 ft | 159 kts | 133° |
| 2026-04-30 19:30 | 48.97257 | 2.15990 | 5121 ft | 169 kts | 90° |
| 2026-04-30 19:30 | 48.97442 | 2.19569 | 4912 ft | 170 kts | 89° |
| 2026-04-30 19:31 | 48.97635 | 2.23196 | 4548 ft | 167 kts | 89° |
| 2026-04-30 19:31 | 48.97724 | 2.24941 | 4348 ft | 165 kts | 90° |
| 2026-04-30 19:31 | 48.97921 | 2.28371 | 3937 ft | 160 kts | 89° |
| 2026-04-30 19:32 | 48.98007 | 2.30060 | 3729 ft | 158 kts | 90° |
| 2026-04-30 19:32 | 48.98084 | 2.31698 | 3523 ft | 155 kts | 90° |
| 2026-04-30 19:32 | 48.98173 | 2.33336 | 3316 ft | 152 kts | 90° |
| 2026-04-30 19:32 | 48.98251 | 2.34825 | 3137 ft | 150 kts | 90° |
| 2026-04-30 19:33 | 48.98333 | 2.36595 | 2916 ft | 148 kts | 90° |
| 2026-04-30 19:33 | 48.98400 | 2.38072 | 2740 ft | 148 kts | 90° |
| 2026-04-30 19:33 | 48.98471 | 2.39667 | 2525 ft | 147 kts | 90° |
| 2026-04-30 19:33 | 48.98539 | 2.41206 | 2334 ft | 145 kts | 89° |
| 2026-04-30 19:34 | 48.98619 | 2.42754 | 2141 ft | 143 kts | 89° |
| 2026-04-30 19:34 | 48.98691 | 2.44197 | 1986 ft | 139 kts | 89° |
| 2026-04-30 19:34 | 48.98814 | 2.47191 | 1578 ft | 135 kts | 89° |
| 2026-04-30 19:35 | 48.98872 | 2.48480 | 1407 ft | 136 kts | 86° |
| 2026-04-30 19:35 | 48.98961 | 2.49977 | 1240 ft | 138 kts | 87° |
| 2026-04-30 19:35 | 48.99034 | 2.51469 | 1049 ft | 140 kts | 87° |
| 2026-04-30 19:35 | 48.99106 | 2.52926 | 843 ft | 142 kts | 86° |
| 2026-04-30 19:36 | 48.99185 | 2.54379 | 647 ft | 131 kts | 87° |
| 2026-04-30 19:36 | 48.99252 | 2.55766 | 474 ft | 122 kts | 85° |
| 2026-04-30 19:36 | 48.99363 | 2.57962 | 357 ft | 45 kts | 85° |
| 2026-04-30 19:37 | 48.99388 | 2.58352 | 361 ft | 36 kts | 80° |
| 2026-04-30 19:37 | 48.99470 | 2.58702 | 363 ft | 34 kts | 65° |
| 2026-04-30 19:37 | 48.99520 | 2.58865 | 366 ft | 0 kts | 65° |
| 2026-04-30 19:38 | 48.99522 | 2.58871 | 365 ft | 3 kts | 65° |
| 2026-04-30 19:38 | 48.99537 | 2.58919 | 362 ft | 7 kts | 65° |
| 2026-04-30 19:38 | 48.99565 | 2.59009 | 363 ft | 11 kts | 65° |
| 2026-04-30 19:38 | 48.99599 | 2.59140 | 366 ft | 14 kts | 74° |
| 2026-04-30 19:39 | 48.99611 | 2.59280 | 361 ft | 15 kts | 83° |
| 2026-04-30 19:39 | 48.99620 | 2.59428 | 359 ft | 18 kts | 85° |
| 2026-04-30 19:39 | 48.99624 | 2.59504 | 365 ft | 1 kts | 85° |
| 2026-04-30 19:39 | 48.99626 | 2.59543 | 365 ft | 6 kts | 85° |
| 2026-04-30 19:40 | 48.99670 | 2.59675 | 365 ft | 13 kts | 26° |
| 2026-04-30 19:40 | 48.99752 | 2.59681 | 365 ft | 15 kts | 356° |
| 2026-04-30 19:40 | 48.99861 | 2.59666 | 360 ft | 18 kts | 354° |
| 2026-04-30 19:40 | 48.99899 | 2.59661 | 366 ft | 0 kts | 355° |
| 2026-04-30 19:42 | 48.99912 | 2.59659 | 366 ft | 5 kts | 355° |
| 2026-04-30 19:42 | 48.99962 | 2.59653 | 361 ft | 10 kts | 355° |
| 2026-04-30 19:43 | 49.00001 | 2.59648 | 365 ft | 3 kts | 355° |
| 2026-04-30 19:43 | 49.00038 | 2.59644 | 367 ft | 7 kts | 359° |
| 2026-04-30 19:43 | 49.00062 | 2.59621 | 364 ft | 9 kts | 313° |
| 2026-04-30 19:44 | 49.00060 | 2.59216 | 368 ft | 25 kts | 265° |
| 2026-04-30 19:44 | 49.00043 | 2.58928 | 361 ft | 29 kts | 265° |
| 2026-04-30 19:44 | 49.00028 | 2.58624 | 359 ft | 32 kts | 266° |
| 2026-04-30 19:44 | 49.00008 | 2.58227 | 363 ft | 36 kts | 265° |
| 2026-04-30 19:45 | 48.99987 | 2.57831 | 367 ft | 39 kts | 265° |
| 2026-04-30 19:45 | 48.99961 | 2.57399 | 361 ft | 42 kts | 266° |
| 2026-04-30 19:45 | 48.99943 | 2.57034 | 365 ft | 29 kts | 264° |
| 2026-04-30 19:45 | 48.99924 | 2.56711 | 361 ft | 33 kts | 265° |
| 2026-04-30 19:46 | 48.99908 | 2.56368 | 363 ft | 22 kts | 266° |
| 2026-04-30 19:46 | 48.99896 | 2.56132 | 359 ft | 27 kts | 265° |
| 2026-04-30 19:46 | 48.99912 | 2.55840 | 364 ft | 29 kts | 281° |
| 2026-04-30 19:46 | 48.99967 | 2.55683 | 366 ft | 13 kts | 319° |
| 2026-04-30 19:47 | 49.00041 | 2.55648 | 363 ft | 13 kts | 350° |
| 2026-04-30 19:47 | 49.00104 | 2.55624 | 363 ft | 15 kts | 341° |
| 2026-04-30 19:47 | 49.00336 | 2.55519 | 367 ft | 30 kts | 344° |
| 2026-04-30 19:47 | 49.00547 | 2.55427 | 364 ft | 32 kts | 344° |
| 2026-04-30 19:48 | 49.00774 | 2.55328 | 365 ft | 35 kts | 344° |
| 2026-04-30 19:48 | 49.00988 | 2.55236 | 362 ft | 25 kts | 345° |
| 2026-04-30 19:48 | 49.01167 | 2.55160 | 365 ft | 28 kts | 343° |
| 2026-04-30 19:48 | 49.01234 | 2.54963 | 366 ft | 22 kts | 265° |
| 2026-04-30 19:49 | 49.01223 | 2.54824 | 362 ft | 16 kts | 263° |
| 2026-04-30 19:49 | 49.01377 | 2.54740 | 365 ft | 18 kts | 13° |
| 2026-04-30 19:49 | 49.01536 | 2.54736 | 364 ft | 22 kts | 343° |
| 2026-04-30 19:50 | 49.01661 | 2.54650 | 367 ft | 23 kts | 317° |
| 2026-04-30 19:50 | 49.01649 | 2.54561 | 368 ft | 10 kts | 232° |
| 2026-04-30 19:50 | 49.01628 | 2.54518 | 365 ft | 0 kts | 233° |